Terminal Aerodrome Forecast
Issued by NWS

Home | Current Version | Previous Version | Text Only | Print | Product List | Glossary On
Versions: 1 2 3 4 5 6 7 8 9 10 11 12 13 14 15 16 17 18 19 20 21 22 23 24 25 26 27 28 29 30 31 32 33 34 35 36 37 38 39 40 41 42 43 44 45 46 47 48 49 50
000
FTUS43 KDMX 170538
TAFFOD
TAF
KFOD 170538Z 1706/1806 25010G16KT P6SM OVC035
     FM170700 25010KT P6SM BKN028
     FM171100 26010KT P6SM OVC015
     FM171500 28013G20KT P6SM BKN020
     FM171700 29015G23KT P6SM BKN035
     FM180000 31009KT P6SM SKC=

USA.gov is the U.S. government's official web portal to all federal, state and local government web resources and services.